sensor_id;sensor_type;location;lat;lon;timestamp;P1;durP1;ratioP1;P2;durP2;ratioP2
12906;SDS011;6521;50.498;8.474;2024-03-29T00:00:38;4.73;;;1.30;;
12906;SDS011;6521;50.498;8.474;2024-03-29T00:03:09;5.53;;;1.40;;
12906;SDS011;6521;50.498;8.474;2024-03-29T00:05:43;2.27;;;0.93;;
12906;SDS011;6521;50.498;8.474;2024-03-29T00:08:14;2.60;;;1.07;;
12906;SDS011;6521;50.498;8.474;2024-03-29T00:10:48;4.00;;;2.00;;
12906;SDS011;6521;50.498;8.474;2024-03-29T00:13:20;1.90;;;1.10;;
12906;SDS011;6521;50.498;8.474;2024-03-29T00:15:53;1.10;;;0.97;;
12906;SDS011;6521;50.498;8.474;2024-03-29T00:18:24;4.97;;;1.30;;
12906;SDS011;6521;50.498;8.474;2024-03-29T00:20:55;1.60;;;1.07;;
12906;SDS011;6521;50.498;8.474;2024-03-29T00:23:28;1.73;;;1.03;;
12906;SDS011;6521;50.498;8.474;2024-03-29T00:26:06;6.07;;;1.63;;
12906;SDS011;6521;50.498;8.474;2024-03-29T00:28:39;1.27;;;0.97;;
12906;SDS011;6521;50.498;8.474;2024-03-29T00:31:11;3.00;;;1.33;;
12906;SDS011;6521;50.498;8.474;2024-03-29T00:33:44;3.37;;;1.17;;
12906;SDS011;6521;50.498;8.474;2024-03-29T00:36:16;3.27;;;1.23;;
12906;SDS011;6521;50.498;8.474;2024-03-29T00:39:04;2.27;;;0.90;;
12906;SDS011;6521;50.498;8.474;2024-03-29T00:41:35;3.43;;;1.07;;
12906;SDS011;6521;50.498;8.474;2024-03-29T00:44:06;7.53;;;1.50;;
12906;SDS011;6521;50.498;8.474;2024-03-29T00:46:38;2.20;;;1.23;;
12906;SDS011;6521;50.498;8.474;2024-03-29T00:49:11;2.07;;;1.60;;
12906;SDS011;6521;50.498;8.474;2024-03-29T00:51:42;2.20;;;1.30;;
12906;SDS011;6521;50.498;8.474;2024-03-29T00:54:13;3.27;;;1.10;;
12906;SDS011;6521;50.498;8.474;2024-03-29T00:56:44;3.20;;;1.20;;
12906;SDS011;6521;50.498;8.474;2024-03-29T00:59:16;2.60;;;1.20;;
12906;SDS011;6521;50.498;8.474;2024-03-29T01:01:47;2.40;;;1.00;;
12906;SDS011;6521;50.498;8.474;2024-03-29T01:04:18;1.77;;;1.00;;
12906;SDS011;6521;50.498;8.474;2024-03-29T01:06:51;3.17;;;1.13;;
12906;SDS011;6521;50.498;8.474;2024-03-29T01:09:21;3.23;;;1.00;;
12906;SDS011;6521;50.498;8.474;2024-03-29T01:11:52;2.50;;;1.30;;
12906;SDS011;6521;50.498;8.474;2024-03-29T01:14:24;2.10;;;1.20;;
12906;SDS011;6521;50.498;8.474;2024-03-29T01:17:01;3.17;;;1.40;;
12906;SDS011;6521;50.498;8.474;2024-03-29T01:19:33;2.30;;;1.30;;
12906;SDS011;6521;50.498;8.474;2024-03-29T01:22:08;5.50;;;1.20;;
12906;SDS011;6521;50.498;8.474;2024-03-29T01:24:46;4.43;;;1.30;;
12906;SDS011;6521;50.498;8.474;2024-03-29T01:27:26;4.23;;;1.47;;
12906;SDS011;6521;50.498;8.474;2024-03-29T01:30:02;5.03;;;1.57;;
12906;SDS011;6521;50.498;8.474;2024-03-29T01:32:36;2.60;;;1.57;;
12906;SDS011;6521;50.498;8.474;2024-03-29T01:35:07;3.90;;;1.23;;
12906;SDS011;6521;50.498;8.474;2024-03-29T01:37:41;1.67;;;1.50;;
12906;SDS011;6521;50.498;8.474;2024-03-29T01:40:14;1.70;;;1.30;;
12906;SDS011;6521;50.498;8.474;2024-03-29T01:42:55;4.37;;;1.30;;
12906;SDS011;6521;50.498;8.474;2024-03-29T01:45:31;2.37;;;1.23;;
12906;SDS011;6521;50.498;8.474;2024-03-29T01:48:02;5.23;;;1.23;;
12906;SDS011;6521;50.498;8.474;2024-03-29T01:50:40;6.07;;;1.30;;
12906;SDS011;6521;50.498;8.474;2024-03-29T01:53:25;5.77;;;1.30;;
12906;SDS011;6521;50.498;8.474;2024-03-29T01:55:57;3.00;;;1.10;;
12906;SDS011;6521;50.498;8.474;2024-03-29T01:58:30;2.27;;;1.30;;
12906;SDS011;6521;50.498;8.474;2024-03-29T02:01:01;1.67;;;1.50;;
12906;SDS011;6521;50.498;8.474;2024-03-29T02:03:35;3.83;;;1.53;;
12906;SDS011;6521;50.498;8.474;2024-03-29T02:06:08;1.70;;;1.20;;
12906;SDS011;6521;50.498;8.474;2024-03-29T02:08:41;3.13;;;1.23;;
12906;SDS011;6521;50.498;8.474;2024-03-29T02:11:12;10.07;;;1.50;;
12906;SDS011;6521;50.498;8.474;2024-03-29T02:13:44;1.97;;;1.20;;
12906;SDS011;6521;50.498;8.474;2024-03-29T02:16:15;1.83;;;1.23;;
12906;SDS011;6521;50.498;8.474;2024-03-29T02:18:50;2.37;;;1.00;;
12906;SDS011;6521;50.498;8.474;2024-03-29T02:21:20;3.93;;;1.30;;
12906;SDS011;6521;50.498;8.474;2024-03-29T02:24:00;4.10;;;1.50;;
12906;SDS011;6521;50.498;8.474;2024-03-29T02:26:38;3.23;;;1.37;;
12906;SDS011;6521;50.498;8.474;2024-03-29T02:29:14;3.53;;;1.30;;
12906;SDS011;6521;50.498;8.474;2024-03-29T02:31:48;8.43;;;1.30;;
12906;SDS011;6521;50.498;8.474;2024-03-29T02:34:20;4.07;;;1.23;;
12906;SDS011;6521;50.498;8.474;2024-03-29T02:36:52;2.93;;;1.33;;
12906;SDS011;6521;50.498;8.474;2024-03-29T02:39:23;3.40;;;1.50;;
12906;SDS011;6521;50.498;8.474;2024-03-29T02:41:56;5.80;;;1.37;;
12906;SDS011;6521;50.498;8.474;2024-03-29T02:44:37;2.77;;;1.30;;
12906;SDS011;6521;50.498;8.474;2024-03-29T02:47:08;2.80;;;1.33;;
12906;SDS011;6521;50.498;8.474;2024-03-29T02:49:40;2.70;;;1.13;;
12906;SDS011;6521;50.498;8.474;2024-03-29T02:52:12;5.87;;;1.90;;
12906;SDS011;6521;50.498;8.474;2024-03-29T02:54:49;2.90;;;1.40;;
12906;SDS011;6521;50.498;8.474;2024-03-29T02:57:20;3.37;;;1.30;;
12906;SDS011;6521;50.498;8.474;2024-03-29T02:59:51;4.30;;;1.30;;
12906;SDS011;6521;50.498;8.474;2024-03-29T03:02:28;1.83;;;1.23;;
12906;SDS011;6521;50.498;8.474;2024-03-29T03:05:03;2.67;;;0.90;;
12906;SDS011;6521;50.498;8.474;2024-03-29T03:07:44;4.53;;;2.00;;
12906;SDS011;6521;50.498;8.474;2024-03-29T03:10:33;5.30;;;1.13;;
12906;SDS011;6521;50.498;8.474;2024-03-29T03:13:27;2.37;;;1.30;;
12906;SDS011;6521;50.498;8.474;2024-03-29T03:16:00;3.17;;;1.10;;
12906;SDS011;6521;50.498;8.474;2024-03-29T03:18:34;3.47;;;1.17;;
12906;SDS011;6521;50.498;8.474;2024-03-29T03:21:05;7.53;;;1.10;;
12906;SDS011;6521;50.498;8.474;2024-03-29T03:23:36;2.03;;;1.10;;
12906;SDS011;6521;50.498;8.474;2024-03-29T03:26:07;1.87;;;1.10;;
12906;SDS011;6521;50.498;8.474;2024-03-29T03:28:40;4.27;;;1.37;;
12906;SDS011;6521;50.498;8.474;2024-03-29T03:31:11;2.63;;;1.00;;
12906;SDS011;6521;50.498;8.474;2024-03-29T03:33:44;3.10;;;1.20;;
12906;SDS011;6521;50.498;8.474;2024-03-29T03:36:17;1.30;;;1.20;;
12906;SDS011;6521;50.498;8.474;2024-03-29T03:38:52;2.37;;;1.10;;
12906;SDS011;6521;50.498;8.474;2024-03-29T03:41:27;2.73;;;1.30;;
12906;SDS011;6521;50.498;8.474;2024-03-29T03:43:59;2.30;;;1.20;;
12906;SDS011;6521;50.498;8.474;2024-03-29T03:46:30;1.77;;;1.03;;
12906;SDS011;6521;50.498;8.474;2024-03-29T03:49:02;2.57;;;1.30;;
12906;SDS011;6521;50.498;8.474;2024-03-29T03:51:37;3.90;;;1.33;;
12906;SDS011;6521;50.498;8.474;2024-03-29T03:54:11;2.87;;;1.43;;
12906;SDS011;6521;50.498;8.474;2024-03-29T03:56:42;3.97;;;1.67;;
12906;SDS011;6521;50.498;8.474;2024-03-29T03:59:16;2.17;;;1.37;;
12906;SDS011;6521;50.498;8.474;2024-03-29T04:01:47;12.13;;;1.63;;
12906;SDS011;6521;50.498;8.474;2024-03-29T04:04:25;14.33;;;1.70;;
12906;SDS011;6521;50.498;8.474;2024-03-29T04:07:07;1.80;;;1.40;;
12906;SDS011;6521;50.498;8.474;2024-03-29T04:09:44;19.23;;;1.73;;
12906;SDS011;6521;50.498;8.474;2024-03-29T04:12:15;10.17;;;1.40;;
12906;SDS011;6521;50.498;8.474;2024-03-29T04:14:47;2.17;;;1.43;;
12906;SDS011;6521;50.498;8.474;2024-03-29T04:17:17;2.90;;;1.20;;
12906;SDS011;6521;50.498;8.474;2024-03-29T04:19:48;2.53;;;1.30;;
12906;SDS011;6521;50.498;8.474;2024-03-29T04:22:20;2.93;;;1.20;;
12906;SDS011;6521;50.498;8.474;2024-03-29T04:24:57;1.87;;;1.30;;
12906;SDS011;6521;50.498;8.474;2024-03-29T04:27:37;3.87;;;1.13;;
12906;SDS011;6521;50.498;8.474;2024-03-29T04:30:11;1.73;;;1.20;;
12906;SDS011;6521;50.498;8.474;2024-03-29T04:32:48;1.93;;;1.33;;
12906;SDS011;6521;50.498;8.474;2024-03-29T04:35:21;2.33;;;1.10;;
12906;SDS011;6521;50.498;8.474;2024-03-29T04:38:32;5.10;;;1.03;;
12906;SDS011;6521;50.498;8.474;2024-03-29T04:41:04;1.77;;;1.30;;
12906;SDS011;6521;50.498;8.474;2024-03-29T04:43:36;1.37;;;1.13;;
12906;SDS011;6521;50.498;8.474;2024-03-29T04:46:11;2.30;;;1.07;;
12906;SDS011;6521;50.498;8.474;2024-03-29T04:48:44;2.87;;;1.00;;
12906;SDS011;6521;50.498;8.474;2024-03-29T04:51:27;2.77;;;1.53;;
12906;SDS011;6521;50.498;8.474;2024-03-29T04:53:58;2.50;;;1.40;;
12906;SDS011;6521;50.498;8.474;2024-03-29T04:56:31;2.87;;;1.10;;
12906;SDS011;6521;50.498;8.474;2024-03-29T04:59:09;1.90;;;1.00;;
12906;SDS011;6521;50.498;8.474;2024-03-29T05:01:40;2.87;;;1.40;;
12906;SDS011;6521;50.498;8.474;2024-03-29T05:04:13;4.63;;;1.30;;
12906;SDS011;6521;50.498;8.474;2024-03-29T05:06:47;1.50;;;1.10;;
12906;SDS011;6521;50.498;8.474;2024-03-29T05:09:18;10.13;;;1.63;;
12906;SDS011;6521;50.498;8.474;2024-03-29T05:11:49;1.83;;;1.20;;
12906;SDS011;6521;50.498;8.474;2024-03-29T05:14:21;1.90;;;1.20;;
12906;SDS011;6521;50.498;8.474;2024-03-29T05:16:54;8.53;;;1.03;;
12906;SDS011;6521;50.498;8.474;2024-03-29T05:19:29;2.77;;;1.13;;
12906;SDS011;6521;50.498;8.474;2024-03-29T05:22:00;1.33;;;1.07;;
12906;SDS011;6521;50.498;8.474;2024-03-29T05:24:32;2.77;;;1.40;;
12906;SDS011;6521;50.498;8.474;2024-03-29T05:27:06;2.73;;;1.07;;
12906;SDS011;6521;50.498;8.474;2024-03-29T05:29:37;1.40;;;1.00;;
12906;SDS011;6521;50.498;8.474;2024-03-29T05:32:20;2.93;;;0.90;;
12906;SDS011;6521;50.498;8.474;2024-03-29T05:34:52;3.17;;;1.20;;
12906;SDS011;6521;50.498;8.474;2024-03-29T05:37:24;1.30;;;1.03;;
12906;SDS011;6521;50.498;8.474;2024-03-29T05:39:58;3.50;;;1.00;;
12906;SDS011;6521;50.498;8.474;2024-03-29T05:42:31;2.90;;;1.10;;
12906;SDS011;6521;50.498;8.474;2024-03-29T05:45:24;1.77;;;0.90;;
12906;SDS011;6521;50.498;8.474;2024-03-29T05:48:00;1.50;;;0.90;;
12906;SDS011;6521;50.498;8.474;2024-03-29T05:50:31;1.80;;;1.10;;
12906;SDS011;6521;50.498;8.474;2024-03-29T05:53:03;1.40;;;1.10;;
12906;SDS011;6521;50.498;8.474;2024-03-29T05:55:35;1.60;;;1.13;;
12906;SDS011;6521;50.498;8.474;2024-03-29T05:58:08;3.27;;;1.37;;
12906;SDS011;6521;50.498;8.474;2024-03-29T06:00:39;2.40;;;1.17;;
12906;SDS011;6521;50.498;8.474;2024-03-29T06:03:10;1.70;;;1.00;;
12906;SDS011;6521;50.498;8.474;2024-03-29T06:05:41;2.50;;;1.20;;
12906;SDS011;6521;50.498;8.474;2024-03-29T06:08:12;2.93;;;1.00;;
12906;SDS011;6521;50.498;8.474;2024-03-29T06:10:43;3.23;;;1.30;;
12906;SDS011;6521;50.498;8.474;2024-03-29T06:13:15;3.20;;;1.20;;
12906;SDS011;6521;50.498;8.474;2024-03-29T06:16:19;1.57;;;1.20;;
12906;SDS011;6521;50.498;8.474;2024-03-29T06:19:10;2.23;;;1.10;;
12906;SDS011;6521;50.498;8.474;2024-03-29T06:21:42;1.17;;;1.00;;
12906;SDS011;6521;50.498;8.474;2024-03-29T06:24:13;1.53;;;1.20;;
12906;SDS011;6521;50.498;8.474;2024-03-29T06:26:45;1.70;;;1.50;;
12906;SDS011;6521;50.498;8.474;2024-03-29T06:29:16;1.17;;;0.97;;
12906;SDS011;6521;50.498;8.474;2024-03-29T06:31:47;2.53;;;1.23;;
12906;SDS011;6521;50.498;8.474;2024-03-29T06:34:20;4.03;;;1.30;;
12906;SDS011;6521;50.498;8.474;2024-03-29T06:36:53;1.87;;;1.40;;
12906;SDS011;6521;50.498;8.474;2024-03-29T06:39:23;1.83;;;1.23;;
12906;SDS011;6521;50.498;8.474;2024-03-29T06:41:56;4.10;;;1.30;;
12906;SDS011;6521;50.498;8.474;2024-03-29T06:44:28;4.57;;;1.33;;
12906;SDS011;6521;50.498;8.474;2024-03-29T06:46:59;1.80;;;1.40;;
12906;SDS011;6521;50.498;8.474;2024-03-29T06:49:31;3.47;;;1.13;;
12906;SDS011;6521;50.498;8.474;2024-03-29T06:52:03;2.80;;;1.30;;
12906;SDS011;6521;50.498;8.474;2024-03-29T06:54:36;5.73;;;1.30;;
12906;SDS011;6521;50.498;8.474;2024-03-29T06:57:07;1.27;;;1.00;;
12906;SDS011;6521;50.498;8.474;2024-03-29T06:59:41;3.37;;;1.43;;
12906;SDS011;6521;50.498;8.474;2024-03-29T07:02:11;1.57;;;1.23;;
12906;SDS011;6521;50.498;8.474;2024-03-29T07:04:43;1.77;;;1.30;;
12906;SDS011;6521;50.498;8.474;2024-03-29T07:07:14;4.37;;;1.30;;
12906;SDS011;6521;50.498;8.474;2024-03-29T07:09:45;1.30;;;1.20;;
12906;SDS011;6521;50.498;8.474;2024-03-29T07:12:18;3.93;;;1.30;;
12906;SDS011;6521;50.498;8.474;2024-03-29T07:14:50;3.80;;;1.50;;
12906;SDS011;6521;50.498;8.474;2024-03-29T07:17:20;3.90;;;1.13;;
12906;SDS011;6521;50.498;8.474;2024-03-29T07:19:51;2.50;;;1.27;;
12906;SDS011;6521;50.498;8.474;2024-03-29T07:22:22;2.33;;;1.20;;
12906;SDS011;6521;50.498;8.474;2024-03-29T07:24:56;2.37;;;1.40;;
12906;SDS011;6521;50.498;8.474;2024-03-29T07:27:28;1.90;;;1.20;;
12906;SDS011;6521;50.498;8.474;2024-03-29T07:30:06;2.60;;;1.50;;
12906;SDS011;6521;50.498;8.474;2024-03-29T07:32:42;3.73;;;1.30;;
12906;SDS011;6521;50.498;8.474;2024-03-29T07:35:15;3.03;;;1.30;;
12906;SDS011;6521;50.498;8.474;2024-03-29T07:37:47;1.80;;;1.33;;
12906;SDS011;6521;50.498;8.474;2024-03-29T07:40:22;4.87;;;1.40;;
12906;SDS011;6521;50.498;8.474;2024-03-29T07:42:53;2.77;;;1.47;;
12906;SDS011;6521;50.498;8.474;2024-03-29T07:45:25;2.23;;;1.33;;
12906;SDS011;6521;50.498;8.474;2024-03-29T07:47:56;2.87;;;1.30;;
12906;SDS011;6521;50.498;8.474;2024-03-29T07:50:29;6.40;;;1.80;;
12906;SDS011;6521;50.498;8.474;2024-03-29T07:53:01;5.93;;;2.80;;
12906;SDS011;6521;50.498;8.474;2024-03-29T07:55:32;9.07;;;6.17;;
12906;SDS011;6521;50.498;8.474;2024-03-29T07:58:08;3.17;;;2.50;;
12906;SDS011;6521;50.498;8.474;2024-03-29T08:00:40;3.37;;;2.40;;
12906;SDS011;6521;50.498;8.474;2024-03-29T08:03:12;3.63;;;2.10;;
12906;SDS011;6521;50.498;8.474;2024-03-29T08:05:43;4.13;;;1.57;;
12906;SDS011;6521;50.498;8.474;2024-03-29T08:08:39;1.73;;;1.63;;
12906;SDS011;6521;50.498;8.474;2024-03-29T08:11:11;4.43;;;1.50;;
12906;SDS011;6521;50.498;8.474;2024-03-29T08:13:45;4.47;;;1.50;;
12906;SDS011;6521;50.498;8.474;2024-03-29T08:16:17;3.03;;;1.40;;
12906;SDS011;6521;50.498;8.474;2024-03-29T08:18:49;1.93;;;1.03;;
12906;SDS011;6521;50.498;8.474;2024-03-29T08:21:20;3.90;;;1.50;;
12906;SDS011;6521;50.498;8.474;2024-03-29T08:23:51;1.90;;;1.30;;
12906;SDS011;6521;50.498;8.474;2024-03-29T08:26:30;2.00;;;1.50;;
12906;SDS011;6521;50.498;8.474;2024-03-29T08:29:01;4.30;;;1.30;;
12906;SDS011;6521;50.498;8.474;2024-03-29T08:31:32;4.57;;;1.40;;
12906;SDS011;6521;50.498;8.474;2024-03-29T08:34:05;2.70;;;1.20;;
12906;SDS011;6521;50.498;8.474;2024-03-29T08:36:37;2.37;;;1.37;;
12906;SDS011;6521;50.498;8.474;2024-03-29T08:39:08;4.80;;;1.37;;
12906;SDS011;6521;50.498;8.474;2024-03-29T08:41:39;2.53;;;1.40;;
12906;SDS011;6521;50.498;8.474;2024-03-29T08:44:10;6.90;;;2.00;;
12906;SDS011;6521;50.498;8.474;2024-03-29T08:46:41;8.97;;;1.40;;
12906;SDS011;6521;50.498;8.474;2024-03-29T08:49:12;1.77;;;1.17;;
12906;SDS011;6521;50.498;8.474;2024-03-29T08:51:47;5.00;;;1.37;;
12906;SDS011;6521;50.498;8.474;2024-03-29T08:54:18;1.30;;;1.20;;
12906;SDS011;6521;50.498;8.474;2024-03-29T08:56:52;2.43;;;1.20;;
12906;SDS011;6521;50.498;8.474;2024-03-29T08:59:22;3.97;;;1.50;;
12906;SDS011;6521;50.498;8.474;2024-03-29T09:01:53;1.40;;;1.10;;
12906;SDS011;6521;50.498;8.474;2024-03-29T09:04:27;1.90;;;1.20;;
12906;SDS011;6521;50.498;8.474;2024-03-29T09:06:58;1.50;;;1.20;;
12906;SDS011;6521;50.498;8.474;2024-03-29T09:09:31;2.80;;;1.20;;
12906;SDS011;6521;50.498;8.474;2024-03-29T09:12:02;1.40;;;1.00;;
12906;SDS011;6521;50.498;8.474;2024-03-29T09:14:33;2.90;;;1.63;;
12906;SDS011;6521;50.498;8.474;2024-03-29T09:17:04;1.97;;;1.30;;
12906;SDS011;6521;50.498;8.474;2024-03-29T09:19:37;4.60;;;1.23;;
12906;SDS011;6521;50.498;8.474;2024-03-29T09:22:08;1.10;;;1.00;;
12906;SDS011;6521;50.498;8.474;2024-03-29T09:24:40;2.47;;;1.30;;
12906;SDS011;6521;50.498;8.474;2024-03-29T09:27:10;2.20;;;1.13;;
12906;SDS011;6521;50.498;8.474;2024-03-29T09:29:43;2.30;;;1.10;;
12906;SDS011;6521;50.498;8.474;2024-03-29T09:32:19;1.10;;;1.00;;
12906;SDS011;6521;50.498;8.474;2024-03-29T09:34:54;1.43;;;1.23;;
12906;SDS011;6521;50.498;8.474;2024-03-29T09:37:25;2.27;;;1.60;;
12906;SDS011;6521;50.498;8.474;2024-03-29T09:39:56;6.87;;;1.60;;
12906;SDS011;6521;50.498;8.474;2024-03-29T09:42:27;1.77;;;1.40;;
12906;SDS011;6521;50.498;8.474;2024-03-29T09:45:05;3.63;;;1.30;;
12906;SDS011;6521;50.498;8.474;2024-03-29T09:47:38;2.70;;;1.30;;
12906;SDS011;6521;50.498;8.474;2024-03-29T09:50:10;2.17;;;1.07;;
12906;SDS011;6521;50.498;8.474;2024-03-29T09:52:45;4.13;;;1.10;;
12906;SDS011;6521;50.498;8.474;2024-03-29T09:55:21;1.30;;;1.20;;
12906;SDS011;6521;50.498;8.474;2024-03-29T09:57:53;1.63;;;1.30;;
12906;SDS011;6521;50.498;8.474;2024-03-29T10:00:25;1.20;;;1.10;;
12906;SDS011;6521;50.498;8.474;2024-03-29T10:02:58;1.90;;;1.20;;
12906;SDS011;6521;50.498;8.474;2024-03-29T10:05:30;2.40;;;1.30;;
12906;SDS011;6521;50.498;8.474;2024-03-29T10:08:04;4.63;;;1.27;;
12906;SDS011;6521;50.498;8.474;2024-03-29T10:10:37;2.00;;;1.23;;
12906;SDS011;6521;50.498;8.474;2024-03-29T10:13:11;2.97;;;1.43;;
12906;SDS011;6521;50.498;8.474;2024-03-29T10:15:42;1.77;;;1.57;;
12906;SDS011;6521;50.498;8.474;2024-03-29T10:18:29;2.13;;;1.23;;
12906;SDS011;6521;50.498;8.474;2024-03-29T10:21:01;3.53;;;1.50;;
12906;SDS011;6521;50.498;8.474;2024-03-29T10:23:36;3.90;;;1.43;;
12906;SDS011;6521;50.498;8.474;2024-03-29T10:26:08;1.20;;;1.10;;
12906;SDS011;6521;50.498;8.474;2024-03-29T10:28:43;1.77;;;1.10;;
12906;SDS011;6521;50.498;8.474;2024-03-29T10:31:17;1.70;;;1.20;;
12906;SDS011;6521;50.498;8.474;2024-03-29T10:33:50;2.00;;;1.30;;
12906;SDS011;6521;50.498;8.474;2024-03-29T10:36:25;1.27;;;1.17;;
12906;SDS011;6521;50.498;8.474;2024-03-29T10:38:57;2.60;;;1.23;;
12906;SDS011;6521;50.498;8.474;2024-03-29T10:41:28;1.53;;;1.03;;
12906;SDS011;6521;50.498;8.474;2024-03-29T10:43:59;2.00;;;1.20;;
12906;SDS011;6521;50.498;8.474;2024-03-29T10:46:34;1.33;;;1.03;;
12906;SDS011;6521;50.498;8.474;2024-03-29T10:49:09;1.30;;;1.20;;
12906;SDS011;6521;50.498;8.474;2024-03-29T10:51:41;1.83;;;1.27;;
12906;SDS011;6521;50.498;8.474;2024-03-29T10:54:12;1.30;;;1.10;;
12906;SDS011;6521;50.498;8.474;2024-03-29T10:56:43;2.27;;;1.40;;
12906;SDS011;6521;50.498;8.474;2024-03-29T10:59:21;3.23;;;1.47;;
12906;SDS011;6521;50.498;8.474;2024-03-29T11:01:59;2.47;;;1.30;;
12906;SDS011;6521;50.498;8.474;2024-03-29T11:04:34;2.27;;;1.50;;
12906;SDS011;6521;50.498;8.474;2024-03-29T11:07:19;1.93;;;1.53;;
12906;SDS011;6521;50.498;8.474;2024-03-29T11:09:56;3.37;;;1.73;;
12906;SDS011;6521;50.498;8.474;2024-03-29T11:12:30;1.80;;;1.60;;
12906;SDS011;6521;50.498;8.474;2024-03-29T11:15:14;2.07;;;1.47;;
12906;SDS011;6521;50.498;8.474;2024-03-29T11:17:51;2.60;;;1.40;;
12906;SDS011;6521;50.498;8.474;2024-03-29T11:20:26;2.43;;;1.50;;
12906;SDS011;6521;50.498;8.474;2024-03-29T11:23:19;2.40;;;1.30;;
12906;SDS011;6521;50.498;8.474;2024-03-29T11:25:52;2.50;;;1.60;;
12906;SDS011;6521;50.498;8.474;2024-03-29T11:28:34;2.33;;;1.80;;
12906;SDS011;6521;50.498;8.474;2024-03-29T11:31:06;3.00;;;1.93;;
12906;SDS011;6521;50.498;8.474;2024-03-29T11:33:44;1.70;;;1.60;;
12906;SDS011;6521;50.498;8.474;2024-03-29T11:36:20;1.67;;;1.50;;
12906;SDS011;6521;50.498;8.474;2024-03-29T11:38:57;2.40;;;1.67;;
12906;SDS011;6521;50.498;8.474;2024-03-29T11:41:29;4.17;;;2.47;;
12906;SDS011;6521;50.498;8.474;2024-03-29T11:44:02;2.10;;;1.90;;
12906;SDS011;6521;50.498;8.474;2024-03-29T11:46:35;2.10;;;1.87;;
12906;SDS011;6521;50.498;8.474;2024-03-29T11:49:07;5.77;;;2.00;;
12906;SDS011;6521;50.498;8.474;2024-03-29T11:51:41;2.57;;;1.80;;
12906;SDS011;6521;50.498;8.474;2024-03-29T11:54:12;2.30;;;2.10;;
12906;SDS011;6521;50.498;8.474;2024-03-29T11:56:43;5.07;;;2.10;;
12906;SDS011;6521;50.498;8.474;2024-03-29T11:59:14;2.23;;;1.87;;
12906;SDS011;6521;50.498;8.474;2024-03-29T12:01:46;2.30;;;1.90;;
12906;SDS011;6521;50.498;8.474;2024-03-29T12:04:21;5.40;;;2.70;;
12906;SDS011;6521;50.498;8.474;2024-03-29T12:06:57;3.13;;;2.00;;
12906;SDS011;6521;50.498;8.474;2024-03-29T12:09:30;4.73;;;2.17;;
12906;SDS011;6521;50.498;8.474;2024-03-29T12:12:05;3.37;;;2.20;;
12906;SDS011;6521;50.498;8.474;2024-03-29T12:14:49;3.07;;;1.80;;
12906;SDS011;6521;50.498;8.474;2024-03-29T12:17:21;6.53;;;1.80;;
12906;SDS011;6521;50.498;8.474;2024-03-29T12:19:57;3.70;;;1.87;;
12906;SDS011;6521;50.498;8.474;2024-03-29T12:22:32;3.67;;;1.90;;
12906;SDS011;6521;50.498;8.474;2024-03-29T12:25:03;5.77;;;2.23;;
12906;SDS011;6521;50.498;8.474;2024-03-29T12:27:37;2.20;;;2.00;;
12906;SDS011;6521;50.498;8.474;2024-03-29T12:30:09;4.90;;;2.27;;
12906;SDS011;6521;50.498;8.474;2024-03-29T12:32:41;6.97;;;2.53;;
12906;SDS011;6521;50.498;8.474;2024-03-29T12:35:15;3.70;;;2.60;;
12906;SDS011;6521;50.498;8.474;2024-03-29T12:37:49;3.10;;;2.80;;
12906;SDS011;6521;50.498;8.474;2024-03-29T12:40:21;6.70;;;4.00;;
12906;SDS011;6521;50.498;8.474;2024-03-29T12:42:56;4.40;;;3.23;;
12906;SDS011;6521;50.498;8.474;2024-03-29T12:45:30;3.77;;;2.50;;
12906;SDS011;6521;50.498;8.474;2024-03-29T12:48:02;4.40;;;2.90;;
12906;SDS011;6521;50.498;8.474;2024-03-29T12:50:33;3.63;;;2.73;;
12906;SDS011;6521;50.498;8.474;2024-03-29T12:53:08;4.93;;;3.07;;
12906;SDS011;6521;50.498;8.474;2024-03-29T12:55:40;3.70;;;3.10;;
12906;SDS011;6521;50.498;8.474;2024-03-29T12:58:18;3.90;;;3.20;;
12906;SDS011;6521;50.498;8.474;2024-03-29T13:00:52;7.57;;;2.60;;
12906;SDS011;6521;50.498;8.474;2024-03-29T13:03:26;3.97;;;3.00;;
12906;SDS011;6521;50.498;8.474;2024-03-29T13:05:58;3.20;;;2.87;;
12906;SDS011;6521;50.498;8.474;2024-03-29T13:08:30;4.83;;;3.40;;
12906;SDS011;6521;50.498;8.474;2024-03-29T13:11:01;4.03;;;2.93;;
12906;SDS011;6521;50.498;8.474;2024-03-29T13:13:34;3.53;;;2.97;;
12906;SDS011;6521;50.498;8.474;2024-03-29T13:16:05;3.50;;;3.20;;
12906;SDS011;6521;50.498;8.474;2024-03-29T13:18:38;3.47;;;3.17;;
12906;SDS011;6521;50.498;8.474;2024-03-29T13:21:10;3.93;;;2.63;;
12906;SDS011;6521;50.498;8.474;2024-03-29T13:23:42;5.30;;;3.57;;
12906;SDS011;6521;50.498;8.474;2024-03-29T13:26:14;6.10;;;3.00;;
12906;SDS011;6521;50.498;8.474;2024-03-29T13:28:45;3.33;;;2.80;;
12906;SDS011;6521;50.498;8.474;2024-03-29T13:31:16;6.70;;;2.80;;
12906;SDS011;6521;50.498;8.474;2024-03-29T13:33:47;3.33;;;2.90;;
12906;SDS011;6521;50.498;8.474;2024-03-29T13:36:18;3.47;;;2.60;;
12906;SDS011;6521;50.498;8.474;2024-03-29T13:38:49;4.13;;;2.37;;
12906;SDS011;6521;50.498;8.474;2024-03-29T13:41:22;3.10;;;2.40;;
12906;SDS011;6521;50.498;8.474;2024-03-29T13:43:53;4.90;;;3.13;;
12906;SDS011;6521;50.498;8.474;2024-03-29T13:46:24;3.50;;;2.70;;
12906;SDS011;6521;50.498;8.474;2024-03-29T13:48:55;2.10;;;1.73;;
12906;SDS011;6521;50.498;8.474;2024-03-29T13:51:26;5.03;;;1.70;;
12906;SDS011;6521;50.498;8.474;2024-03-29T13:54:05;2.30;;;1.70;;
12906;SDS011;6521;50.498;8.474;2024-03-29T13:56:36;2.07;;;1.67;;
12906;SDS011;6521;50.498;8.474;2024-03-29T13:59:07;1.93;;;1.40;;
12906;SDS011;6521;50.498;8.474;2024-03-29T14:01:38;2.57;;;1.60;;
12906;SDS011;6521;50.498;8.474;2024-03-29T14:04:10;2.10;;;1.60;;
12906;SDS011;6521;50.498;8.474;2024-03-29T14:06:43;1.63;;;1.53;;
12906;SDS011;6521;50.498;8.474;2024-03-29T14:09:13;1.70;;;1.60;;
12906;SDS011;6521;50.498;8.474;2024-03-29T14:11:44;3.60;;;1.93;;
12906;SDS011;6521;50.498;8.474;2024-03-29T14:14:15;2.13;;;1.80;;
12906;SDS011;6521;50.498;8.474;2024-03-29T14:16:46;1.93;;;1.60;;
12906;SDS011;6521;50.498;8.474;2024-03-29T14:19:17;1.50;;;1.40;;
12906;SDS011;6521;50.498;8.474;2024-03-29T14:21:48;1.93;;;1.73;;
12906;SDS011;6521;50.498;8.474;2024-03-29T14:24:19;5.97;;;3.77;;
12906;SDS011;6521;50.498;8.474;2024-03-29T14:26:51;6.17;;;3.83;;
12906;SDS011;6521;50.498;8.474;2024-03-29T14:29:25;6.13;;;3.73;;
12906;SDS011;6521;50.498;8.474;2024-03-29T14:31:57;4.10;;;2.90;;
12906;SDS011;6521;50.498;8.474;2024-03-29T14:34:28;5.30;;;3.33;;
12906;SDS011;6521;50.498;8.474;2024-03-29T14:37:03;4.47;;;2.50;;
12906;SDS011;6521;50.498;8.474;2024-03-29T14:39:34;3.93;;;2.07;;
12906;SDS011;6521;50.498;8.474;2024-03-29T14:42:06;2.30;;;1.60;;
12906;SDS011;6521;50.498;8.474;2024-03-29T14:44:40;1.60;;;1.47;;
12906;SDS011;6521;50.498;8.474;2024-03-29T14:47:11;2.77;;;1.80;;
12906;SDS011;6521;50.498;8.474;2024-03-29T14:49:47;1.90;;;1.80;;
12906;SDS011;6521;50.498;8.474;2024-03-29T14:52:19;1.80;;;1.70;;
12906;SDS011;6521;50.498;8.474;2024-03-29T14:54:50;2.37;;;1.60;;
12906;SDS011;6521;50.498;8.474;2024-03-29T14:57:21;3.53;;;1.77;;
12906;SDS011;6521;50.498;8.474;2024-03-29T14:59:54;2.47;;;1.97;;
12906;SDS011;6521;50.498;8.474;2024-03-29T15:02:25;1.50;;;1.40;;
12906;SDS011;6521;50.498;8.474;2024-03-29T15:04:55;2.70;;;1.70;;
12906;SDS011;6521;50.498;8.474;2024-03-29T15:07:28;4.27;;;2.00;;
12906;SDS011;6521;50.498;8.474;2024-03-29T15:10:00;2.27;;;1.90;;
12906;SDS011;6521;50.498;8.474;2024-03-29T15:12:34;2.63;;;1.90;;
12906;SDS011;6521;50.498;8.474;2024-03-29T15:15:05;2.63;;;1.80;;
12906;SDS011;6521;50.498;8.474;2024-03-29T15:17:36;3.03;;;2.33;;
12906;SDS011;6521;50.498;8.474;2024-03-29T15:20:09;3.20;;;2.50;;
12906;SDS011;6521;50.498;8.474;2024-03-29T15:22:41;4.50;;;2.27;;
12906;SDS011;6521;50.498;8.474;2024-03-29T15:25:16;3.00;;;2.70;;
12906;SDS011;6521;50.498;8.474;2024-03-29T15:27:49;2.60;;;2.17;;
12906;SDS011;6521;50.498;8.474;2024-03-29T15:30:38;3.57;;;2.57;;
12906;SDS011;6521;50.498;8.474;2024-03-29T15:33:14;2.60;;;2.40;;
12906;SDS011;6521;50.498;8.474;2024-03-29T15:35:51;3.17;;;2.30;;
12906;SDS011;6521;50.498;8.474;2024-03-29T15:38:22;2.57;;;2.33;;